sensor_id;sensor_type;location;lat;lon;timestamp;pressure;altitude;pressure_sealevel;temperature
72405;BMP280;60395;52.020;113.548;2023-10-31T00:00:32;92462.63;;;-4.19
72405;BMP280;60395;52.020;113.548;2023-10-31T00:03:35;92470.47;;;-4.15
72405;BMP280;60395;52.020;113.548;2023-10-31T00:06:38;92470.66;;;-4.11
72405;BMP280;60395;52.020;113.548;2023-10-31T00:09:42;92467.88;;;-3.99
72405;BMP280;60395;52.020;113.548;2023-10-31T00:12:45;92469.34;;;-3.94
72405;BMP280;60395;52.020;113.548;2023-10-31T00:15:48;92470.13;;;-3.92
72405;BMP280;60395;52.020;113.548;2023-10-31T00:18:51;92463.13;;;-3.89
72405;BMP280;60395;52.020;113.548;2023-10-31T00:21:55;92466.59;;;-3.83
72405;BMP280;60395;52.020;113.548;2023-10-31T00:24:58;92466.00;;;-3.81
72405;BMP280;60395;52.020;113.548;2023-10-31T00:28:01;92470.09;;;-3.74
72405;BMP280;60395;52.020;113.548;2023-10-31T00:31:05;92467.47;;;-3.58
72405;BMP280;60395;52.020;113.548;2023-10-31T00:34:10;92468.78;;;-3.40
72405;BMP280;60395;52.020;113.548;2023-10-31T00:37:14;92467.22;;;-3.29
72405;BMP280;60395;52.020;113.548;2023-10-31T00:40:17;92464.44;;;-3.17
72405;BMP280;60395;52.020;113.548;2023-10-31T00:43:20;92462.53;;;-3.17
72405;BMP280;60395;52.020;113.548;2023-10-31T00:46:24;92463.88;;;-3.16
72405;BMP280;60395;52.020;113.548;2023-10-31T00:49:27;92463.91;;;-3.14
72405;BMP280;60395;52.020;113.548;2023-10-31T00:52:31;92464.56;;;-3.13
72405;BMP280;60395;52.020;113.548;2023-10-31T00:55:34;92470.56;;;-3.07
72405;BMP280;60395;52.020;113.548;2023-10-31T00:58:37;92465.78;;;-2.97
72405;BMP280;60395;52.020;113.548;2023-10-31T01:01:42;92476.81;;;-2.74
72405;BMP280;60395;52.020;113.548;2023-10-31T01:04:46;92481.50;;;-2.49
72405;BMP280;60395;52.020;113.548;2023-10-31T01:07:49;92484.91;;;-2.23
72405;BMP280;60395;52.020;113.548;2023-10-31T01:10:53;92479.78;;;-2.01
72405;BMP280;60395;52.020;113.548;2023-10-31T01:13:56;92482.94;;;-1.83
72405;BMP280;60395;52.020;113.548;2023-10-31T01:16:59;92471.13;;;-1.68
72405;BMP280;60395;52.020;113.548;2023-10-31T01:20:03;92484.09;;;-1.64
72405;BMP280;60395;52.020;113.548;2023-10-31T01:23:06;92482.25;;;-1.61
72405;BMP280;60395;52.020;113.548;2023-10-31T01:26:10;92472.16;;;-1.53
72405;BMP280;60395;52.020;113.548;2023-10-31T01:29:13;92478.25;;;-1.43
72405;BMP280;60395;52.020;113.548;2023-10-31T01:32:16;92470.72;;;-1.13
72405;BMP280;60395;52.020;113.548;2023-10-31T01:35:24;92475.56;;;-0.75
72405;BMP280;60395;52.020;113.548;2023-10-31T01:38:27;92467.94;;;-0.44
72405;BMP280;60395;52.020;113.548;2023-10-31T01:41:31;92465.97;;;-0.19
72405;BMP280;60395;52.020;113.548;2023-10-31T01:44:35;92457.28;;;-0.04
72405;BMP280;60395;52.020;113.548;2023-10-31T01:47:38;92457.56;;;0.08
72405;BMP280;60395;52.020;113.548;2023-10-31T01:50:41;92446.75;;;0.16
72405;BMP280;60395;52.020;113.548;2023-10-31T01:53:45;92453.25;;;0.19
72405;BMP280;60395;52.020;113.548;2023-10-31T01:56:49;92455.25;;;0.20
72405;BMP280;60395;52.020;113.548;2023-10-31T01:59:56;92452.59;;;0.18
72405;BMP280;60395;52.020;113.548;2023-10-31T02:03:00;92452.59;;;0.18
72405;BMP280;60395;52.020;113.548;2023-10-31T02:06:05;92444.13;;;0.14
72405;BMP280;60395;52.020;113.548;2023-10-31T02:09:08;92445.22;;;0.05
72405;BMP280;60395;52.020;113.548;2023-10-31T02:12:31;92450.91;;;-0.01
72405;BMP280;60395;52.020;113.548;2023-10-31T02:15:34;92445.66;;;-0.05
72405;BMP280;60395;52.020;113.548;2023-10-31T02:18:38;92440.47;;;-0.05
72405;BMP280;60395;52.020;113.548;2023-10-31T02:21:41;92444.81;;;-0.14
72405;BMP280;60395;52.020;113.548;2023-10-31T02:24:45;92442.69;;;-0.21
72405;BMP280;60395;52.020;113.548;2023-10-31T02:27:48;92450.31;;;-0.27
72405;BMP280;60395;52.020;113.548;2023-10-31T02:30:51;92451.28;;;-0.41
72405;BMP280;60395;52.020;113.548;2023-10-31T02:33:55;92447.66;;;-0.57
72405;BMP280;60395;52.020;113.548;2023-10-31T02:36:58;92456.97;;;-0.72
72405;BMP280;60395;52.020;113.548;2023-10-31T02:40:02;92443.31;;;-0.76
72405;BMP280;60395;52.020;113.548;2023-10-31T02:43:05;92451.91;;;-0.68
72405;BMP280;60395;52.020;113.548;2023-10-31T02:46:09;92444.00;;;-0.48
72405;BMP280;60395;52.020;113.548;2023-10-31T02:49:15;92440.50;;;-0.59
72405;BMP280;60395;52.020;113.548;2023-10-31T02:52:18;92443.59;;;-0.64
72405;BMP280;60395;52.020;113.548;2023-10-31T02:55:21;92432.34;;;-0.49
72405;BMP280;60395;52.020;113.548;2023-10-31T02:58:24;92439.94;;;-0.29
72405;BMP280;60395;52.020;113.548;2023-10-31T03:01:29;92433.16;;;-0.17
72405;BMP280;60395;52.020;113.548;2023-10-31T03:04:33;92430.72;;;-0.09
72405;BMP280;60395;52.020;113.548;2023-10-31T03:07:36;92432.31;;;0.05
72405;BMP280;60395;52.020;113.548;2023-10-31T03:10:41;92425.34;;;0.11
72405;BMP280;60395;52.020;113.548;2023-10-31T03:13:44;92417.81;;;0.21
72405;BMP280;60395;52.020;113.548;2023-10-31T03:16:47;92414.53;;;0.19
72405;BMP280;60395;52.020;113.548;2023-10-31T03:19:51;92416.53;;;0.22
72405;BMP280;60395;52.020;113.548;2023-10-31T03:22:54;92420.53;;;0.27
72405;BMP280;60395;52.020;113.548;2023-10-31T03:26:01;92413.53;;;0.32
72405;BMP280;60395;52.020;113.548;2023-10-31T03:29:05;92407.75;;;0.35
72405;BMP280;60395;52.020;113.548;2023-10-31T03:32:08;92407.38;;;0.49
72405;BMP280;60395;52.020;113.548;2023-10-31T03:35:12;92407.59;;;0.61
72405;BMP280;60395;52.020;113.548;2023-10-31T03:38:16;92402.97;;;0.56
72405;BMP280;60395;52.020;113.548;2023-10-31T03:41:19;92394.69;;;0.61
72405;BMP280;60395;52.020;113.548;2023-10-31T03:44:27;92393.41;;;0.60
72405;BMP280;60395;52.020;113.548;2023-10-31T03:47:30;92395.38;;;0.64
72405;BMP280;60395;52.020;113.548;2023-10-31T03:50:34;92390.59;;;0.84
72405;BMP280;60395;52.020;113.548;2023-10-31T03:53:37;92398.69;;;1.02
72405;BMP280;60395;52.020;113.548;2023-10-31T03:56:41;92398.88;;;1.14
72405;BMP280;60395;52.020;113.548;2023-10-31T03:59:45;92388.00;;;1.20
72405;BMP280;60395;52.020;113.548;2023-10-31T04:02:48;92388.00;;;1.22
72405;BMP280;60395;52.020;113.548;2023-10-31T04:05:52;92376.28;;;1.17
72405;BMP280;60395;52.020;113.548;2023-10-31T04:08:55;92376.94;;;1.17
72405;BMP280;60395;52.020;113.548;2023-10-31T04:11:58;92374.41;;;1.21
72405;BMP280;60395;52.020;113.548;2023-10-31T04:15:02;92366.84;;;1.34
72405;BMP280;60395;52.020;113.548;2023-10-31T04:18:06;92363.25;;;1.53
72405;BMP280;60395;52.020;113.548;2023-10-31T04:21:09;92366.28;;;1.81
72405;BMP280;60395;52.020;113.548;2023-10-31T04:24:13;92359.41;;;2.02
72405;BMP280;60395;52.020;113.548;2023-10-31T04:27:16;92365.41;;;2.14
72405;BMP280;60395;52.020;113.548;2023-10-31T04:30:20;92346.69;;;2.22
72405;BMP280;60395;52.020;113.548;2023-10-31T04:33:24;92343.03;;;2.43
72405;BMP280;60395;52.020;113.548;2023-10-31T04:36:28;92345.84;;;2.62
72405;BMP280;60395;52.020;113.548;2023-10-31T04:39:31;92342.72;;;2.75
72405;BMP280;60395;52.020;113.548;2023-10-31T04:42:34;92344.81;;;2.89
72405;BMP280;60395;52.020;113.548;2023-10-31T04:45:38;92341.03;;;3.04
72405;BMP280;60395;52.020;113.548;2023-10-31T04:48:41;92345.00;;;3.11
72405;BMP280;60395;52.020;113.548;2023-10-31T04:51:44;92340.44;;;3.10
72405;BMP280;60395;52.020;113.548;2023-10-31T04:54:48;92330.06;;;3.10
72405;BMP280;60395;52.020;113.548;2023-10-31T04:57:51;92325.56;;;3.16
72405;BMP280;60395;52.020;113.548;2023-10-31T05:00:54;92321.72;;;3.25
72405;BMP280;60395;52.020;113.548;2023-10-31T05:03:58;92319.22;;;3.37
72405;BMP280;60395;52.020;113.548;2023-10-31T05:07:14;92327.75;;;3.46
72405;BMP280;60395;52.020;113.548;2023-10-31T05:10:17;92319.97;;;3.46
72405;BMP280;60395;52.020;113.548;2023-10-31T05:13:20;92316.63;;;3.37
72405;BMP280;60395;52.020;113.548;2023-10-31T05:16:24;92311.34;;;3.25
72405;BMP280;60395;52.020;113.548;2023-10-31T05:19:27;92312.63;;;3.22
72405;BMP280;60395;52.020;113.548;2023-10-31T05:22:30;92302.91;;;3.19
72405;BMP280;60395;52.020;113.548;2023-10-31T05:25:33;92301.59;;;3.20
72405;BMP280;60395;52.020;113.548;2023-10-31T05:28:37;92297.03;;;3.16
72405;BMP280;60395;52.020;113.548;2023-10-31T05:31:40;92292.47;;;3.15
72405;BMP280;60395;52.020;113.548;2023-10-31T05:34:44;92281.38;;;3.06
72405;BMP280;60395;52.020;113.548;2023-10-31T05:37:48;92280.00;;;2.95
72405;BMP280;60395;52.020;113.548;2023-10-31T05:40:51;92278.09;;;2.99
72405;BMP280;60395;52.020;113.548;2023-10-31T05:43:54;92279.50;;;3.13
72405;BMP280;60395;52.020;113.548;2023-10-31T05:46:58;92280.84;;;3.24
72405;BMP280;60395;52.020;113.548;2023-10-31T05:50:01;92273.84;;;3.40
72405;BMP280;60395;52.020;113.548;2023-10-31T05:53:04;92271.97;;;3.57
72405;BMP280;60395;52.020;113.548;2023-10-31T05:56:09;92273.34;;;3.68
72405;BMP280;60395;52.020;113.548;2023-10-31T05:59:12;92262.25;;;3.58
72405;BMP280;60395;52.020;113.548;2023-10-31T06:02:16;92261.56;;;3.47
72405;BMP280;60395;52.020;113.548;2023-10-31T06:05:19;92254.41;;;3.45
72405;BMP280;60395;52.020;113.548;2023-10-31T06:08:23;92252.47;;;3.54
72405;BMP280;60395;52.020;113.548;2023-10-31T06:11:27;92246.75;;;3.72
72405;BMP280;60395;52.020;113.548;2023-10-31T06:14:30;92246.81;;;3.90
72405;BMP280;60395;52.020;113.548;2023-10-31T06:17:33;92244.88;;;4.01
72405;BMP280;60395;52.020;113.548;2023-10-31T06:20:37;92243.59;;;4.06
72405;BMP280;60395;52.020;113.548;2023-10-31T06:23:41;92229.28;;;3.99
72405;BMP280;60395;52.020;113.548;2023-10-31T06:26:45;92233.19;;;3.93
72405;BMP280;60395;52.020;113.548;2023-10-31T06:29:48;92222.72;;;3.81
72405;BMP280;60395;52.020;113.548;2023-10-31T06:33:12;92220.09;;;3.73
72405;BMP280;60395;52.020;113.548;2023-10-31T06:36:15;92225.94;;;3.66
72405;BMP280;60395;52.020;113.548;2023-10-31T06:39:19;92225.84;;;3.43
72405;BMP280;60395;52.020;113.548;2023-10-31T06:42:22;92219.91;;;3.31
72405;BMP280;60395;52.020;113.548;2023-10-31T06:45:26;92221.81;;;3.20
72405;BMP280;60395;52.020;113.548;2023-10-31T06:48:29;92214.66;;;3.13
72405;BMP280;60395;52.020;113.548;2023-10-31T06:51:32;92221.84;;;3.24
72405;BMP280;60395;52.020;113.548;2023-10-31T06:54:38;92218.69;;;3.44
72405;BMP280;60395;52.020;113.548;2023-10-31T06:57:42;92219.34;;;3.40
72405;BMP280;60395;52.020;113.548;2023-10-31T07:00:46;92211.44;;;3.22
72405;BMP280;60395;52.020;113.548;2023-10-31T07:03:49;92210.13;;;3.17
72405;BMP280;60395;52.020;113.548;2023-10-31T07:12:52;92202.56;;;3.66
72405;BMP280;60395;52.020;113.548;2023-10-31T07:15:56;92198.72;;;3.81
72405;BMP280;60395;52.020;113.548;2023-10-31T07:19:00;92204.53;;;3.69
72405;BMP280;60395;52.020;113.548;2023-10-31T07:22:04;92207.03;;;3.49
72405;BMP280;60395;52.020;113.548;2023-10-31T07:25:08;92203.00;;;3.20
72405;BMP280;60395;52.020;113.548;2023-10-31T07:28:12;92204.16;;;2.96
72405;BMP280;60395;52.020;113.548;2023-10-31T07:31:16;92198.16;;;2.76
72405;BMP280;60395;52.020;113.548;2023-10-31T07:34:19;92196.78;;;2.61
72405;BMP280;60395;52.020;113.548;2023-10-31T07:37:23;92194.63;;;2.37
72405;BMP280;60395;52.020;113.548;2023-10-31T07:40:27;92204.84;;;2.19
72405;BMP280;60395;52.020;113.548;2023-10-31T07:43:30;92203.50;;;2.13
72405;BMP280;60395;52.020;113.548;2023-10-31T07:46:35;92195.84;;;2.26
72405;BMP280;60395;52.020;113.548;2023-10-31T07:49:39;92199.16;;;2.36
72405;BMP280;60395;52.020;113.548;2023-10-31T07:52:43;92195.97;;;2.42
72405;BMP280;60395;52.020;113.548;2023-10-31T07:55:48;92203.75;;;2.44
72405;BMP280;60395;52.020;113.548;2023-10-31T07:58:52;92192.84;;;2.53
72405;BMP280;60395;52.020;113.548;2023-10-31T08:01:55;92199.25;;;2.46
72405;BMP280;60395;52.020;113.548;2023-10-31T08:04:59;92200.34;;;2.23
72405;BMP280;60395;52.020;113.548;2023-10-31T08:08:02;92207.28;;;2.04
72405;BMP280;60395;52.020;113.548;2023-10-31T08:11:09;92208.38;;;1.85
72405;BMP280;60395;52.020;113.548;2023-10-31T08:14:13;92204.91;;;1.66
72405;BMP280;60395;52.020;113.548;2023-10-31T08:17:18;92205.38;;;1.51
72405;BMP280;60395;52.020;113.548;2023-10-31T08:20:21;92202.00;;;1.40
72405;BMP280;60395;52.020;113.548;2023-10-31T08:23:25;92207.75;;;1.31
72405;BMP280;60395;52.020;113.548;2023-10-31T08:26:28;92211.56;;;1.25
72405;BMP280;60395;52.020;113.548;2023-10-31T08:29:32;92211.50;;;1.23
72405;BMP280;60395;52.020;113.548;2023-10-31T08:32:35;92211.50;;;1.23
72405;BMP280;60395;52.020;113.548;2023-10-31T08:35:39;92207.56;;;1.18
72405;BMP280;60395;52.020;113.548;2023-10-31T08:38:42;92203.66;;;1.17
72405;BMP280;60395;52.020;113.548;2023-10-31T08:41:53;92202.34;;;1.16
72405;BMP280;60395;52.020;113.548;2023-10-31T08:44:57;92210.06;;;1.12
72405;BMP280;60395;52.020;113.548;2023-10-31T08:48:00;92208.78;;;1.13
72405;BMP280;60395;52.020;113.548;2023-10-31T08:51:04;92210.00;;;1.08
72405;BMP280;60395;52.020;113.548;2023-10-31T08:54:08;92207.94;;;0.99
72405;BMP280;60395;52.020;113.548;2023-10-31T08:57:14;92214.34;;;0.94
72405;BMP280;60395;52.020;113.548;2023-10-31T09:00:18;92212.31;;;0.90
72405;BMP280;60395;52.020;113.548;2023-10-31T09:03:23;92214.25;;;0.88
72405;BMP280;60395;52.020;113.548;2023-10-31T09:06:30;92215.47;;;0.82
72405;BMP280;60395;52.020;113.548;2023-10-31T09:09:33;92211.47;;;0.77
72405;BMP280;60395;52.020;113.548;2023-10-31T09:12:36;92211.44;;;0.73
72405;BMP280;60395;52.020;113.548;2023-10-31T09:15:40;92208.72;;;0.65
72405;BMP280;60395;52.020;113.548;2023-10-31T09:18:44;92199.56;;;0.58
72405;BMP280;60395;52.020;113.548;2023-10-31T09:21:48;92202.16;;;0.58
72405;BMP280;60395;52.020;113.548;2023-10-31T09:24:51;92200.19;;;0.57
72405;BMP280;60395;52.020;113.548;2023-10-31T09:27:55;92200.19;;;0.57
72405;BMP280;60395;52.020;113.548;2023-10-31T09:30:59;92198.22;;;0.55
72405;BMP280;60395;52.020;113.548;2023-10-31T09:34:04;92213.69;;;0.53
72405;BMP280;60395;52.020;113.548;2023-10-31T09:37:07;92208.47;;;0.49
72405;BMP280;60395;52.020;113.548;2023-10-31T09:40:11;92212.97;;;0.49
72405;BMP280;60395;52.020;113.548;2023-10-31T09:43:14;92216.72;;;0.41
72405;BMP280;60395;52.020;113.548;2023-10-31T09:46:18;92214.75;;;0.38
72405;BMP280;60395;52.020;113.548;2023-10-31T09:49:21;92215.97;;;0.35
72405;BMP280;60395;52.020;113.548;2023-10-31T09:52:25;92214.09;;;0.37
72405;BMP280;60395;52.020;113.548;2023-10-31T09:55:28;92210.78;;;0.33
72405;BMP280;60395;52.020;113.548;2023-10-31T09:58:32;92223.03;;;0.32
72405;BMP280;60395;52.020;113.548;2023-10-31T10:01:36;92221.09;;;0.31
72405;BMP280;60395;52.020;113.548;2023-10-31T10:04:40;92209.41;;;0.28
72405;BMP280;60395;52.020;113.548;2023-10-31T10:07:44;92206.00;;;0.17
72405;BMP280;60395;52.020;113.548;2023-10-31T10:10:48;92208.59;;;0.17
72405;BMP280;60395;52.020;113.548;2023-10-31T10:13:53;92215.00;;;0.14
72405;BMP280;60395;52.020;113.548;2023-10-31T10:16:56;92212.31;;;0.08
72405;BMP280;60395;52.020;113.548;2023-10-31T10:20:08;92212.19;;;0.02
72405;BMP280;60395;52.020;113.548;2023-10-31T10:23:12;92215.97;;;-0.03
72405;BMP280;60395;52.020;113.548;2023-10-31T10:26:16;92223.00;;;-0.08
72405;BMP280;60395;52.020;113.548;2023-10-31T10:29:20;92215.19;;;-0.12
72405;BMP280;60395;52.020;113.548;2023-10-31T10:32:23;92211.25;;;-0.15
72405;BMP280;60395;52.020;113.548;2023-10-31T10:35:27;92219.59;;;-0.16
72405;BMP280;60395;52.020;113.548;2023-10-31T10:38:31;92210.59;;;-0.15
72405;BMP280;60395;52.020;113.548;2023-10-31T10:41:38;92213.22;;;-0.13
72405;BMP280;60395;52.020;113.548;2023-10-31T10:44:44;92204.16;;;-0.14
72405;BMP280;60395;52.020;113.548;2023-10-31T10:47:52;92211.84;;;-0.16
72405;BMP280;60395;52.020;113.548;2023-10-31T10:51:13;92207.94;;;-0.19
72405;BMP280;60395;52.020;113.548;2023-10-31T10:54:45;92204.03;;;-0.20
72405;BMP280;60395;52.020;113.548;2023-10-31T10:58:22;92207.88;;;-0.23
72405;BMP280;60395;52.020;113.548;2023-10-31T11:01:31;92209.09;;;-0.26
72405;BMP280;60395;52.020;113.548;2023-10-31T11:04:35;92201.97;;;-0.28
72405;BMP280;60395;52.020;113.548;2023-10-31T11:07:40;92209.75;;;-0.26
72405;BMP280;60395;52.020;113.548;2023-10-31T11:10:45;92202.59;;;-0.27
72405;BMP280;60395;52.020;113.548;2023-10-31T11:13:50;92208.34;;;-0.31
72405;BMP280;60395;52.020;113.548;2023-10-31T11:17:00;92212.75;;;-0.35
72405;BMP280;60395;52.020;113.548;2023-10-31T11:20:08;92208.13;;;-0.41
72405;BMP280;60395;52.020;113.548;2023-10-31T11:23:13;92206.75;;;-0.46
72405;BMP280;60395;52.020;113.548;2023-10-31T11:26:17;92216.34;;;-0.49
72405;BMP280;60395;52.020;113.548;2023-10-31T11:29:20;92215.69;;;-0.51
72405;BMP280;60395;52.020;113.548;2023-10-31T11:32:26;92215.03;;;-0.52
72405;BMP280;60395;52.020;113.548;2023-10-31T11:35:30;92206.66;;;-0.50
72405;BMP280;60395;52.020;113.548;2023-10-31T11:38:37;92207.94;;;-0.51
72405;BMP280;60395;52.020;113.548;2023-10-31T11:41:49;92209.88;;;-0.50
72405;BMP280;60395;52.020;113.548;2023-10-31T11:44:56;92205.34;;;-0.51
72405;BMP280;60395;52.020;113.548;2023-10-31T11:47:59;92201.41;;;-0.54
72405;BMP280;60395;52.020;113.548;2023-10-31T11:51:03;92210.38;;;-0.57
72405;BMP280;60395;52.020;113.548;2023-10-31T11:54:06;92205.63;;;-0.69
72405;BMP280;60395;52.020;113.548;2023-10-31T11:57:29;92194.41;;;-0.82
72405;BMP280;60395;52.020;113.548;2023-10-31T12:00:36;92193.75;;;-0.82
72405;BMP280;60395;52.020;113.548;2023-10-31T12:03:43;92195.81;;;-0.76
72405;BMP280;60395;52.020;113.548;2023-10-31T12:06:59;92196.56;;;-0.72
72405;BMP280;60395;52.020;113.548;2023-10-31T12:10:03;92196.56;;;-0.72
72405;BMP280;60395;52.020;113.548;2023-10-31T12:13:13;92191.19;;;-0.82
72405;BMP280;60395;52.020;113.548;2023-10-31T12:16:16;92198.03;;;-0.93
72405;BMP280;60395;52.020;113.548;2023-10-31T12:19:21;92195.16;;;-1.07
72405;BMP280;60395;52.020;113.548;2023-10-31T12:22:24;92188.66;;;-1.10
72405;BMP280;60395;52.020;113.548;2023-10-31T12:25:29;92186.38;;;-1.26
72405;BMP280;60395;52.020;113.548;2023-10-31T12:28:33;92197.69;;;-1.37
72405;BMP280;60395;52.020;113.548;2023-10-31T12:31:44;92196.84;;;-1.45
72405;BMP280;60395;52.020;113.548;2023-10-31T12:34:48;92197.22;;;-1.57
72405;BMP280;60395;52.020;113.548;2023-10-31T12:37:53;92200.75;;;-1.70
72405;BMP280;60395;52.020;113.548;2023-10-31T12:40:57;92190.19;;;-1.82
72405;BMP280;60395;52.020;113.548;2023-10-31T12:44:01;92194.13;;;-1.79
72405;BMP280;60395;52.020;113.548;2023-10-31T12:47:08;92193.56;;;-1.76
72405;BMP280;60395;52.020;113.548;2023-10-31T12:50:16;92191.63;;;-1.75
72405;BMP280;60395;52.020;113.548;2023-10-31T12:53:23;92187.63;;;-1.82
72405;BMP280;60395;52.020;113.548;2023-10-31T12:56:39;92190.03;;;-1.88
72405;BMP280;60395;52.020;113.548;2023-10-31T12:59:43;92190.38;;;-2.00
72405;BMP280;60395;52.020;113.548;2023-10-31T13:02:46;92196.06;;;-2.03
72405;BMP280;60395;52.020;113.548;2023-10-31T13:05:50;92190.25;;;-2.04
72405;BMP280;60395;52.020;113.548;2023-10-31T13:08:58;92185.75;;;-2.03
72405;BMP280;60395;52.020;113.548;2023-10-31T13:12:04;92189.50;;;-2.09
72405;BMP280;60395;52.020;113.548;2023-10-31T13:15:08;92195.66;;;-2.20
72405;BMP280;60395;52.020;113.548;2023-10-31T13:18:12;92191.47;;;-2.31
72405;BMP280;60395;52.020;113.548;2023-10-31T13:21:17;92192.41;;;-2.44
72405;BMP280;60395;52.020;113.548;2023-10-31T13:24:21;92188.19;;;-2.57
72405;BMP280;60395;52.020;113.548;2023-10-31T13:27:25;92181.28;;;-2.74
72405;BMP280;60395;52.020;113.548;2023-10-31T13:30:31;92178.50;;;-2.82
72405;BMP280;60395;52.020;113.548;2023-10-31T13:33:35;92184.28;;;-2.82
72405;BMP280;60395;52.020;113.548;2023-10-31T13:36:38;92183.84;;;-2.74
72405;BMP280;60395;52.020;113.548;2023-10-31T13:39:46;92183.44;;;-2.67
72405;BMP280;60395;52.020;113.548;2023-10-31T13:42:51;92184.22;;;-2.62
72405;BMP280;60395;52.020;113.548;2023-10-31T13:45:56;92189.34;;;-2.62
72405;BMP280;60395;52.020;113.548;2023-10-31T13:49:00;92198.28;;;-2.63
72405;BMP280;60395;52.020;113.548;2023-10-31T13:52:06;92200.16;;;-2.66
72405;BMP280;60395;52.020;113.548;2023-10-31T13:55:09;92201.31;;;-2.71
72405;BMP280;60395;52.020;113.548;2023-10-31T13:58:13;92209.81;;;-2.88
72405;BMP280;60395;52.020;113.548;2023-10-31T14:01:17;92218.81;;;-3.09
72405;BMP280;60395;52.020;113.548;2023-10-31T14:04:26;92218.72;;;-3.33
72405;BMP280;60395;52.020;113.548;2023-10-31T14:07:29;92208.94;;;-3.38
72405;BMP280;60395;52.020;113.548;2023-10-31T14:10:32;92211.56;;;-3.56
72405;BMP280;60395;52.020;113.548;2023-10-31T14:13:39;92206.50;;;-3.74
72405;BMP280;60395;52.020;113.548;2023-10-31T14:16:46;92212.09;;;-3.79
72405;BMP280;60395;52.020;113.548;2023-10-31T14:19:50;92208.16;;;-3.82
72405;BMP280;60395;52.020;113.548;2023-10-31T14:22:54;92208.88;;;-3.80
72405;BMP280;60395;52.020;113.548;2023-10-31T14:25:59;92208.28;;;-3.78
72405;BMP280;60395;52.020;113.548;2023-10-31T14:29:03;92200.19;;;-3.90
72405;BMP280;60395;52.020;113.548;2023-10-31T14:32:09;92193.47;;;-3.99
72405;BMP280;60395;52.020;113.548;2023-10-31T14:35:13;92196.63;;;-4.01
72405;BMP280;60395;52.020;113.548;2023-10-31T14:38:17;92203.84;;;-4.15
72405;BMP280;60395;52.020;113.548;2023-10-31T14:41:21;92193.25;;;-4.25
72405;BMP280;60395;52.020;113.548;2023-10-31T14:44:24;92200.31;;;-4.24
72405;BMP280;60395;52.020;113.548;2023-10-31T14:47:28;92199.81;;;-4.20
72405;BMP280;60395;52.020;113.548;2023-10-31T14:50:32;92199.44;;;-4.13
72405;BMP280;60395;52.020;113.548;2023-10-31T14:53:37;92198.03;;;-4.16
72405;BMP280;60395;52.020;113.548;2023-10-31T14:56:40;92193.69;;;-4.31
72405;BMP280;60395;52.020;113.548;2023-10-31T14:59:44;92203.88;;;-4.33
72405;BMP280;60395;52.020;113.548;2023-10-31T15:02:51;92205.13;;;-4.34
72405;BMP280;60395;52.020;113.548;2023-10-31T15:05:55;92207.22;;;-4.28
72405;BMP280;60395;52.020;113.548;2023-10-31T15:08:59;92206.28;;;-4.19
72405;BMP280;60395;52.020;113.548;2023-10-31T15:12:03;92218.00;;;-4.14
72405;BMP280;60395;52.020;113.548;2023-10-31T15:15:07;92215.44;;;-4.14
72405;BMP280;60395;52.020;113.548;2023-10-31T15:18:11;92209.13;;;-4.11
72405;BMP280;60395;52.020;113.548;2023-10-31T15:21:15;92214.00;;;-4.17
72405;BMP280;60395;52.020;113.548;2023-10-31T15:24:18;92220.91;;;-4.22
72405;BMP280;60395;52.020;113.548;2023-10-31T15:27:21;92222.91;;;-4.20
72405;BMP280;60395;52.020;113.548;2023-10-31T15:30:24;92219.59;;;-4.23
72405;BMP280;60395;52.020;113.548;2023-10-31T15:33:28;92228.94;;;-4.31
72405;BMP280;60395;52.020;113.548;2023-10-31T15:36:32;92229.84;;;-4.40
72405;BMP280;60395;52.020;113.548;2023-10-31T15:39:35;92233.69;;;-4.41
72405;BMP280;60395;52.020;113.548;2023-10-31T15:42:45;92220.72;;;-4.46
72405;BMP280;60395;52.020;113.548;2023-10-31T15:45:51;92216.31;;;-4.61
72405;BMP280;60395;52.020;113.548;2023-10-31T15:48:55;92217.34;;;-4.68
72405;BMP280;60395;52.020;113.548;2023-10-31T15:51:58;92214.13;;;-4.68
72405;BMP280;60395;52.020;113.548;2023-10-31T15:55:02;92210.09;;;-4.73
72405;BMP280;60395;52.020;113.548;2023-10-31T15:58:05;92212.97;;;-4.83
72405;BMP280;60395;52.020;113.548;2023-10-31T16:01:09;92217.88;;;-4.89
72405;BMP280;60395;52.020;113.548;2023-10-31T16:04:13;92217.13;;;-4.92
72405;BMP280;60395;52.020;113.548;2023-10-31T16:07:17;92219.75;;;-4.90
72405;BMP280;60395;52.020;113.548;2023-10-31T16:10:23;92225.63;;;-4.87
72405;BMP280;60395;52.020;113.548;2023-10-31T16:13:26;92221.75;;;-4.88
72405;BMP280;60395;52.020;113.548;2023-10-31T16:16:29;92221.16;;;-4.87
72405;BMP280;60395;52.020;113.548;2023-10-31T16:19:36;92226.28;;;-4.87
72405;BMP280;60395;52.020;113.548;2023-10-31T16:22:41;92219.09;;;-4.90
72405;BMP280;60395;52.020;113.548;2023-10-31T16:25:44;92220.56;;;-5.03
72405;BMP280;60395;52.020;113.548;2023-10-31T16:28:48;92232.78;;;-5.17
72405;BMP280;60395;52.020;113.548;2023-10-31T16:31:54;92233.63;;;-5.28
72405;BMP280;60395;52.020;113.548;2023-10-31T16:34:58;92235.63;;;-5.27
72405;BMP280;60395;52.020;113.548;2023-10-31T16:38:02;92231.81;;;-5.26
72405;BMP280;60395;52.020;113.548;2023-10-31T16:41:06;92239.66;;;-5.22
72405;BMP280;60395;52.020;113.548;2023-10-31T16:44:10;92245.59;;;-5.17
72405;BMP280;60395;52.020;113.548;2023-10-31T16:47:14;92242.59;;;-5.11
72405;BMP280;60395;52.020;113.548;2023-10-31T16:50:17;92247.88;;;-5.07
72405;BMP280;60395;52.020;113.548;2023-10-31T16:53:20;92242.78;;;-5.07
72405;BMP280;60395;52.020;113.548;2023-10-31T16:56:24;92250.13;;;-5.15
72405;BMP280;60395;52.020;113.548;2023-10-31T16:59:27;92245.53;;;-5.19
72405;BMP280;60395;52.020;113.548;2023-10-31T17:02:30;92250.16;;;-5.31
72405;BMP280;60395;52.020;113.548;2023-10-31T17:05:34;92245.41;;;-5.54
72405;BMP280;60395;52.020;113.548;2023-10-31T17:08:37;92246.00;;;-5.72
72405;BMP280;60395;52.020;113.548;2023-10-31T17:11:40;92244.50;;;-5.77
72405;BMP280;60395;52.020;113.548;2023-10-31T17:14:44;92247.19;;;-5.73
72405;BMP280;60395;52.020;113.548;2023-10-31T17:17:47;92252.91;;;-5.74
72405;BMP280;60395;52.020;113.548;2023-10-31T17:20:51;92257.19;;;-5.79
72405;BMP280;60395;52.020;113.548;2023-10-31T17:23:54;92266.25;;;-5.76